Time;durP1;ratioP1;P1;durP2;ratioP2;P2;SDS_P1;SDS_P2;PMS_P1;PMS_P2;Temp;Humidity;BMP_temperature;BMP_pressure;BME280_temperature;BME280_humidity;BME280_pressure;Samples;Min_cycle;Max_cycle;Signal;HPM_P1;HPM_P2
2023/05/08 00:01:03;;;;;;;0.10;0.10;;;9.90;99.90;;;;;;5037776;28;20199;-83
2023/05/08 00:03:29;;;;;;;0.20;0.20;;;9.90;99.90;;;;;;5045935;28;20709;-83
2023/05/08 00:05:54;;;;;;;0.10;0.10;;;9.90;99.90;;;;;;5036088;28;20183;-82
2023/05/08 00:08:20;;;;;;;0.10;0.10;;;9.90;99.90;;;;;;5034764;28;20383;-82
2023/05/08 00:10:46;;;;;;;0.10;0.10;;;10.00;99.90;;;;;;5031906;28;20187;-82
2023/05/08 00:13:11;;;;;;;0.20;0.20;;;9.90;99.90;;;;;;5035924;28;20194;-83
2023/05/08 00:15:37;;;;;;;0.10;0.10;;;9.90;99.90;;;;;;5038897;28;20297;-83
2023/05/08 00:18:02;;;;;;;0.10;0.10;;;9.70;99.90;;;;;;5033251;28;20176;-82
2023/05/08 00:20:28;;;;;;;0.20;0.20;;;9.50;99.90;;;;;;5038906;28;20684;-83
2023/05/08 00:22:53;;;;;;;0.10;0.10;;;9.60;99.90;;;;;;5046055;28;20185;-83
2023/05/08 00:25:19;;;;;;;0.10;0.10;;;9.70;99.90;;;;;;5044995;28;20198;-84
2023/05/08 00:27:44;;;;;;;0.10;0.10;;;9.60;99.90;;;;;;5049188;28;20275;-83
2023/05/08 00:30:10;;;;;;;0.10;0.10;;;9.40;99.90;;;;;;5040170;28;20187;-83
2023/05/08 00:32:36;;;;;;;0.17;0.17;;;9.50;99.90;;;;;;5052062;28;20562;-83
2023/05/08 00:35:01;;;;;;;0.10;0.10;;;9.50;99.90;;;;;;5046775;28;20530;-82
2023/05/08 00:37:27;;;;;;;0.10;0.10;;;9.50;99.90;;;;;;5031273;28;20245;-83
2023/05/08 00:39:52;;;;;;;0.10;0.10;;;9.40;99.90;;;;;;5033099;28;20266;-83
2023/05/08 00:42:18;;;;;;;0.10;0.10;;;9.30;99.90;;;;;;5050518;28;20215;-82
2023/05/08 00:44:44;;;;;;;0.10;0.10;;;9.30;99.90;;;;;;5051741;28;20670;-83
2023/05/08 00:47:10;;;;;;;0.10;0.10;;;9.20;99.90;;;;;;5053017;28;20614;-82
2023/05/08 00:49:36;;;;;;;0.10;0.10;;;9.20;99.90;;;;;;5047577;28;21041;-83
2023/05/08 00:52:03;;;;;;;0.10;0.10;;;9.00;99.90;;;;;;5041629;28;20273;-84
2023/05/08 00:54:29;;;;;;;0.10;0.10;;;9.00;99.90;;;;;;5046629;28;20434;-82
2023/05/08 00:56:55;;;;;;;0.10;0.10;;;9.00;99.90;;;;;;5038055;28;20461;-83
2023/05/08 00:59:21;;;;;;;0.10;0.10;;;9.10;99.90;;;;;;5040664;28;20440;-83
2023/05/08 01:01:48;;;;;;;0.10;0.10;;;9.10;99.90;;;;;;5045267;28;20186;-83
2023/05/08 01:04:13;;;;;;;0.10;0.10;;;9.10;99.90;;;;;;5042844;28;20959;-82
2023/05/08 01:06:39;;;;;;;0.10;0.10;;;9.10;99.90;;;;;;5045956;28;20445;-83
2023/05/08 01:09:05;;;;;;;0.10;0.10;;;8.90;99.90;;;;;;5043600;28;20193;-83
2023/05/08 01:11:42;;;;;;;0.10;0.10;;;9.00;99.90;;;;;;5039337;28;20231;-83
2023/05/08 01:14:23;;;;;;;0.10;0.10;;;9.10;99.90;;;;;;5038077;28;20937;-83
2023/05/08 01:17:00;;;;;;;0.13;0.13;;;9.10;99.90;;;;;;5036369;28;20454;-82
2023/05/08 01:20:14;;;;;;;0.20;0.20;;;9.10;99.90;;;;;;5035286;28;20514;-82
2023/05/08 01:23:03;;;;;;;0.10;0.10;;;8.90;99.90;;;;;;5004153;28;20459;-84
2023/05/08 01:25:40;;;;;;;0.20;0.20;;;9.00;99.90;;;;;;4972628;28;20445;-83
2023/05/08 01:28:30;;;;;;;0.10;0.10;;;9.00;99.90;;;;;;5032157;28;20476;-83
2023/05/08 01:31:02;;;;;;;0.10;0.10;;;8.90;99.90;;;;;;5033713;28;22387;-83
2023/05/08 01:33:35;;;;;;;0.10;0.10;;;8.90;99.90;;;;;;5046840;28;20534;-83
2023/05/08 01:36:39;;;;;;;0.10;0.10;;;9.00;99.90;;;;;;5043355;28;21046;-83
2023/05/08 01:39:24;;;;;;;0.20;0.20;;;9.10;99.90;;;;;;5061518;28;20952;-84
2023/05/08 01:42:01;;;;;;;0.13;0.13;;;8.90;99.90;;;;;;5033600;28;20477;-83
2023/05/08 01:44:36;;;;;;;0.20;0.20;;;8.80;99.90;;;;;;5047611;28;20510;-83
2023/05/08 01:47:05;;;;;;;0.10;0.10;;;8.80;99.90;;;;;;5046224;28;20804;-83
2023/05/08 01:49:40;;;;;;;0.17;0.17;;;8.90;99.90;;;;;;5029990;28;20438;-83
2023/05/08 01:52:13;;;;;;;0.10;0.10;;;8.90;99.90;;;;;;5043843;28;20476;-82
2023/05/08 01:54:45;;;;;;;0.20;0.20;;;8.80;99.90;;;;;;5034181;28;20532;-83
2023/05/08 01:57:13;;;;;;;0.20;0.20;;;8.70;99.90;;;;;;5033547;28;20426;-83
2023/05/08 01:59:41;;;;;;;0.10;0.10;;;8.70;99.90;;;;;;5044113;28;20526;-83
2023/05/08 02:02:09;;;;;;;0.20;0.20;;;8.70;99.90;;;;;;5031740;28;20858;-83
2023/05/08 02:04:35;;;;;;;0.20;0.20;;;8.60;99.90;;;;;;5033332;28;20500;-83
2023/05/08 02:07:01;;;;;;;0.20;0.20;;;8.50;99.90;;;;;;5044985;28;20454;-83
2023/05/08 02:09:30;;;;;;;0.17;0.17;;;8.70;99.90;;;;;;5033120;28;20434;-83
2023/05/08 02:11:57;;;;;;;0.17;0.17;;;8.60;99.90;;;;;;5034833;28;20511;-83
2023/05/08 02:14:25;;;;;;;0.20;0.20;;;8.50;99.90;;;;;;5048657;28;20440;-83
2023/05/08 02:16:53;;;;;;;0.13;0.13;;;8.40;99.90;;;;;;5053244;28;20464;-83
2023/05/08 02:19:22;;;;;;;0.10;0.10;;;8.40;99.90;;;;;;5051188;28;20456;-83
2023/05/08 02:21:49;;;;;;;0.20;0.20;;;8.30;99.90;;;;;;5035564;28;20481;-83
2023/05/08 02:24:16;;;;;;;0.20;0.20;;;8.20;99.90;;;;;;5041560;28;20449;-83
2023/05/08 02:26:43;;;;;;;0.20;0.20;;;8.20;99.90;;;;;;5050525;28;20488;-83
2023/05/08 02:29:09;;;;;;;0.17;0.17;;;8.20;99.90;;;;;;5040420;28;20484;-82
2023/05/08 02:31:36;;;;;;;0.20;0.20;;;8.30;99.90;;;;;;5036156;28;20446;-83
2023/05/08 02:34:03;;;;;;;0.10;0.10;;;8.20;99.90;;;;;;5043833;28;20491;-83
2023/05/08 02:36:30;;;;;;;0.13;0.13;;;8.20;99.90;;;;;;5048858;28;21101;-83
2023/05/08 02:38:58;;;;;;;0.10;0.10;;;8.20;99.90;;;;;;5044437;28;20778;-83
2023/05/08 02:41:28;;;;;;;0.20;0.20;;;8.20;99.90;;;;;;5038582;28;20950;-83
2023/05/08 02:43:54;;;;;;;0.20;0.20;;;8.30;99.90;;;;;;5041881;28;20469;-84
2023/05/08 02:46:57;;;;;;;0.20;0.20;;;8.30;99.90;;;;;;5037691;28;20979;-83
2023/05/08 02:49:47;;;;;;;0.13;0.13;;;8.20;99.90;;;;;;5053072;28;20460;-83
2023/05/08 02:52:21;;;;;;;0.13;0.13;;;8.20;99.90;;;;;;5042193;28;20812;-83
2023/05/08 02:55:05;;;;;;;0.20;0.20;;;8.20;99.90;;;;;;5034893;28;20465;-83
2023/05/08 02:57:49;;;;;;;0.20;0.20;;;8.30;99.90;;;;;;5032272;28;20507;-83
2023/05/08 03:00:23;;;;;;;0.20;0.20;;;8.20;99.90;;;;;;5031817;28;20440;-83
2023/05/08 03:03:00;;;;;;;0.10;0.10;;;8.20;99.90;;;;;;5038992;28;20790;-83
2023/05/08 03:05:34;;;;;;;0.13;0.13;;;8.10;99.90;;;;;;5030607;28;20950;-83
2023/05/08 03:08:04;;;;;;;0.10;0.10;;;8.00;99.90;;;;;;5038161;28;20484;-83
2023/05/08 03:10:33;;;;;;;0.17;0.17;;;7.90;99.90;;;;;;5037558;28;20491;-83
2023/05/08 03:13:02;;;;;;;0.20;0.20;;;8.10;99.90;;;;;;5035948;28;21278;-82
2023/05/08 03:15:36;;;;;;;0.10;0.10;;;8.30;99.90;;;;;;5041939;28;20854;-83
2023/05/08 03:18:14;;;;;;;0.10;0.10;;;8.10;99.90;;;;;;5055881;28;20448;-82
2023/05/08 03:20:43;;;;;;;0.20;0.20;;;8.00;99.90;;;;;;5041574;28;20446;-83
2023/05/08 03:23:11;;;;;;;0.20;0.20;;;8.00;99.90;;;;;;5038265;28;20490;-83
2023/05/08 03:25:40;;;;;;;0.10;0.10;;;8.00;99.90;;;;;;5052644;28;20450;-83
2023/05/08 03:28:07;;;;;;;0.13;0.13;;;8.10;99.90;;;;;;5044009;28;20909;-83
2023/05/08 03:30:36;;;;;;;0.20;0.20;;;8.00;99.90;;;;;;5031592;28;20654;-83
2023/05/08 03:33:03;;;;;;;0.13;0.13;;;7.80;99.90;;;;;;5032067;28;20419;-84
2023/05/08 03:35:30;;;;;;;0.20;0.20;;;8.00;99.90;;;;;;5029756;28;20462;-83
2023/05/08 03:37:56;;;;;;;0.17;0.17;;;8.10;99.90;;;;;;5030932;28;20959;-82
2023/05/08 03:40:22;;;;;;;0.20;0.20;;;8.10;99.90;;;;;;5030406;28;20525;-83
2023/05/08 03:42:48;;;;;;;0.20;0.20;;;8.00;99.90;;;;;;5044796;28;20638;-82
2023/05/08 03:45:16;;;;;;;0.20;0.20;;;8.10;99.90;;;;;;5030653;28;20179;-82
2023/05/08 03:47:43;;;;;;;0.20;0.20;;;8.00;99.90;;;;;;5040012;28;20534;-83
2023/05/08 03:50:09;;;;;;;0.20;0.20;;;8.00;99.90;;;;;;5051206;28;20456;-82
2023/05/08 03:52:34;;;;;;;0.20;0.20;;;7.90;99.90;;;;;;5038988;28;20534;-81
2023/05/08 03:55:03;;;;;;;0.17;0.17;;;8.10;99.90;;;;;;5035944;28;20476;-82
2023/05/08 03:57:39;;;;;;;0.10;0.10;;;8.00;99.90;;;;;;5039457;28;20187;-83
2023/05/08 04:00:24;;;;;;;0.13;0.13;;;8.00;99.90;;;;;;5045971;28;20955;-83
2023/05/08 04:02:56;;;;;;;0.20;0.20;;;7.90;99.90;;;;;;5042264;28;20452;-83
2023/05/08 04:05:36;;;;;;;0.10;0.10;;;7.90;99.90;;;;;;5047126;28;21142;-83
2023/05/08 04:08:16;;;;;;;0.17;0.17;;;7.90;99.90;;;;;;5039458;28;20453;-82
2023/05/08 04:10:47;;;;;;;0.20;0.20;;;8.00;99.90;;;;;;5040730;28;20453;-82
2023/05/08 04:13:18;;;;;;;0.20;0.20;;;8.10;99.90;;;;;;5032593;28;20426;-83
2023/05/08 04:16:15;;;;;;;0.20;0.20;;;8.10;99.90;;;;;;5033487;28;20519;-83
2023/05/08 04:18:47;;;;;;;0.20;0.20;;;8.20;99.90;;;;;;5034123;28;20441;-83
2023/05/08 04:21:22;;;;;;;0.20;0.20;;;8.30;99.90;;;;;;5033630;28;20441;-83
2023/05/08 04:23:49;;;;;;;0.20;0.20;;;8.30;99.90;;;;;;5032786;28;20524;-82
2023/05/08 04:26:17;;;;;;;0.20;0.20;;;8.40;99.90;;;;;;5034975;28;20434;-82
2023/05/08 04:28:45;;;;;;;0.10;0.10;;;8.30;99.90;;;;;;5045454;28;20441;-83
2023/05/08 04:31:16;;;;;;;0.20;0.20;;;8.30;99.90;;;;;;5044836;28;20547;-83
2023/05/08 04:33:45;;;;;;;0.20;0.20;;;8.30;99.90;;;;;;5030164;28;20437;-84
2023/05/08 04:36:12;;;;;;;0.13;0.13;;;8.40;99.90;;;;;;5030118;28;20477;-82
2023/05/08 04:38:38;;;;;;;0.13;0.13;;;8.50;99.90;;;;;;5033132;28;20460;-83
2023/05/08 04:41:04;;;;;;;0.20;0.20;;;8.50;99.90;;;;;;5039891;28;20445;-83
2023/05/08 04:43:29;;;;;;;0.17;0.17;;;8.50;99.90;;;;;;5045732;28;20472;-82
2023/05/08 04:45:55;;;;;;;0.20;0.20;;;8.50;99.90;;;;;;5039206;28;20265;-82
2023/05/08 04:48:20;;;;;;;0.10;0.10;;;8.60;99.90;;;;;;5040661;28;20265;-83
2023/05/08 04:50:46;;;;;;;0.10;0.10;;;8.60;99.90;;;;;;5032995;28;20182;-81
2023/05/08 04:53:11;;;;;;;0.10;0.10;;;8.70;99.90;;;;;;5041729;28;20667;-82
2023/05/08 04:55:37;;;;;;;0.13;0.13;;;8.70;99.90;;;;;;5026887;28;20211;-81
2023/05/08 04:58:02;;;;;;;0.20;0.20;;;8.70;99.90;;;;;;5037946;28;20184;-82
2023/05/08 05:00:28;;;;;;;0.20;0.20;;;8.70;99.90;;;;;;5030522;28;20190;-82
2023/05/08 05:02:53;;;;;;;0.10;0.10;;;8.80;99.90;;;;;;5032803;28;20191;-81
2023/05/08 05:05:19;;;;;;;0.17;0.17;;;8.80;99.90;;;;;;5038207;28;20179;-83
2023/05/08 05:07:45;;;;;;;0.10;0.10;;;8.90;99.90;;;;;;5030267;28;20248;-83
2023/05/08 05:10:10;;;;;;;0.10;0.10;;;9.00;99.90;;;;;;5035538;28;20194;-84
2023/05/08 05:12:37;;;;;;;0.10;0.10;;;9.00;99.90;;;;;;5039714;28;20187;-84
2023/05/08 05:15:02;;;;;;;0.10;0.10;;;9.10;99.90;;;;;;5040922;28;20215;-82
2023/05/08 05:17:30;;;;;;;0.10;0.10;;;9.10;99.90;;;;;;5053855;28;20453;-83
2023/05/08 05:19:56;;;;;;;0.10;0.10;;;9.20;99.90;;;;;;5042123;28;20179;-82
2023/05/08 05:22:21;;;;;;;0.10;0.10;;;9.30;99.90;;;;;;5044469;28;20472;-82
2023/05/08 05:24:47;;;;;;;0.20;0.20;;;9.30;99.90;;;;;;5028590;28;20961;-82
2023/05/08 05:27:12;;;;;;;0.13;0.13;;;9.40;99.90;;;;;;5036250;28;20198;-83
2023/05/08 05:29:38;;;;;;;0.10;0.10;;;9.50;99.90;;;;;;5046896;28;20924;-81
2023/05/08 05:32:06;;;;;;;0.10;0.10;;;9.60;99.90;;;;;;5045239;28;20187;-83
2023/05/08 05:34:31;;;;;;;0.20;0.20;;;9.60;99.90;;;;;;5044060;28;20265;-87
2023/05/08 05:36:57;;;;;;;0.10;0.10;;;9.60;99.90;;;;;;5041181;28;21073;-88
2023/05/08 05:39:22;;;;;;;0.10;0.10;;;9.70;99.90;;;;;;5039651;28;20183;-86
2023/05/08 05:41:48;;;;;;;0.20;0.20;;;9.70;99.90;;;;;;5051931;28;20221;-85
2023/05/08 05:44:13;;;;;;;0.10;0.10;;;9.60;99.90;;;;;;5043892;28;20190;-84
2023/05/08 05:46:39;;;;;;;0.10;0.10;;;9.70;99.90;;;;;;5052208;28;20559;-86
2023/05/08 05:49:04;;;;;;;0.13;0.13;;;9.70;99.90;;;;;;5048947;28;20191;-85
2023/05/08 05:51:31;;;;;;;0.10;0.10;;;9.90;99.90;;;;;;5037420;28;20747;-86
2023/05/08 05:53:56;;;;;;;0.20;0.20;;;9.90;99.90;;;;;;5049095;28;20461;-84
2023/05/08 05:56:22;;;;;;;0.10;0.10;;;9.90;99.90;;;;;;5039828;28;20229;-84
2023/05/08 05:58:47;;;;;;;0.10;0.10;;;9.90;99.90;;;;;;5039624;28;20191;-86
2023/05/08 06:01:13;;;;;;;0.10;0.10;;;9.90;99.90;;;;;;5054615;28;20200;-83
2023/05/08 06:03:39;;;;;;;0.10;0.10;;;10.10;99.90;;;;;;5039909;28;20706;-84
2023/05/08 06:06:04;;;;;;;0.13;0.13;;;10.10;99.90;;;;;;5041134;28;20278;-87
2023/05/08 06:08:30;;;;;;;0.10;0.10;;;9.90;99.90;;;;;;5044453;28;20615;-84
2023/05/08 06:10:55;;;;;;;0.10;0.10;;;10.00;99.90;;;;;;5038059;28;20187;-84
2023/05/08 06:13:21;;;;;;;0.10;0.10;;;10.00;99.90;;;;;;5037364;28;20551;-84
2023/05/08 06:15:48;;;;;;;0.10;0.10;;;9.90;99.90;;;;;;5039862;28;20227;-84
2023/05/08 06:18:13;;;;;;;0.10;0.10;;;10.10;99.90;;;;;;5037899;28;20184;-86
2023/05/08 06:20:39;;;;;;;0.10;0.10;;;10.20;99.90;;;;;;5045624;28;20499;-86
2023/05/08 06:23:05;;;;;;;0.10;0.10;;;10.00;99.90;;;;;;5043097;28;20252;-86
2023/05/08 06:25:30;;;;;;;0.10;0.10;;;10.20;99.90;;;;;;5040048;28;20195;-85
2023/05/08 06:27:56;;;;;;;0.10;0.10;;;10.20;99.90;;;;;;5048734;28;20190;-87
2023/05/08 06:30:22;;;;;;;0.10;0.10;;;10.20;99.90;;;;;;5048753;28;20258;-85
2023/05/08 06:32:47;;;;;;;0.10;0.10;;;10.20;99.90;;;;;;5051124;28;20249;-84
2023/05/08 06:35:17;;;;;;;0.10;0.10;;;10.30;99.90;;;;;;5032530;28;20596;-85
2023/05/08 06:37:43;;;;;;;0.10;0.10;;;10.30;99.90;;;;;;5043620;28;20845;-88
2023/05/08 06:40:09;;;;;;;0.10;0.10;;;10.20;99.90;;;;;;5042999;28;20450;-85
2023/05/08 06:42:35;;;;;;;0.10;0.10;;;10.40;99.90;;;;;;5041640;28;20535;-87
2023/05/08 06:45:01;;;;;;;0.10;0.10;;;10.30;99.90;;;;;;5045888;28;20980;-88
2023/05/08 06:47:26;;;;;;;0.10;0.10;;;10.30;99.90;;;;;;5043761;28;20531;-89
2023/05/08 06:49:52;;;;;;;0.10;0.10;;;10.40;99.90;;;;;;5046536;28;20507;-83
2023/05/08 06:52:19;;;;;;;0.10;0.10;;;10.40;99.90;;;;;;5039678;28;20187;-84
2023/05/08 06:54:45;;;;;;;0.10;0.10;;;10.50;99.90;;;;;;5043296;28;20437;-83
2023/05/08 06:57:12;;;;;;;0.00;0.00;;;10.70;99.90;;;;;;5033939;28;21976;-86
2023/05/08 06:59:38;;;;;;;0.10;0.10;;;10.70;99.90;;;;;;5043269;28;20187;-88
2023/05/08 07:02:03;;;;;;;0.10;0.10;;;10.70;99.90;;;;;;5030335;28;20450;-86
2023/05/08 07:04:29;;;;;;;0.10;0.10;;;10.70;99.90;;;;;;5035346;28;20275;-84
2023/05/08 07:06:54;;;;;;;0.10;0.10;;;10.80;99.90;;;;;;5041787;28;20189;-86
2023/05/08 07:09:20;;;;;;;0.10;0.10;;;10.80;99.90;;;;;;5039862;28;20283;-86
2023/05/08 07:11:46;;;;;;;0.10;0.10;;;11.00;99.90;;;;;;5036031;28;20188;-89
2023/05/08 07:14:12;;;;;;;0.10;0.10;;;11.00;99.90;;;;;;5037039;28;20184;-85
2023/05/08 07:16:37;;;;;;;0.10;0.10;;;11.00;99.90;;;;;;5036956;28;20539;-87
2023/05/08 07:19:03;;;;;;;0.07;0.07;;;11.30;99.90;;;;;;5040174;28;20191;-88
2023/05/08 07:21:29;;;;;;;0.10;0.10;;;11.30;99.90;;;;;;5039904;28;20190;-87
2023/05/08 07:23:55;;;;;;;0.10;0.10;;;11.50;99.90;;;;;;5038914;28;20273;-87
2023/05/08 07:26:21;;;;;;;0.10;0.10;;;11.60;99.90;;;;;;5037012;28;20974;-87
2023/05/08 07:28:47;;;;;;;0.10;0.10;;;11.70;99.90;;;;;;5042558;28;20180;-87
2023/05/08 07:31:13;;;;;;;0.10;0.10;;;11.70;99.90;;;;;;5036110;28;20440;-88
2023/05/08 07:33:38;;;;;;;0.10;0.10;;;11.60;99.90;;;;;;5039989;28;20964;-89
2023/05/08 07:36:04;;;;;;;0.10;0.10;;;11.70;99.90;;;;;;5033943;28;20330;-89
2023/05/08 07:38:29;;;;;;;0.00;0.00;;;11.60;99.90;;;;;;5034807;28;20201;-90
2023/05/08 07:41:00;;;;;;;0.10;0.10;;;11.40;99.90;;;;;;5036129;28;20191;-90
2023/05/08 07:43:25;;;;;;;0.03;0.03;;;11.30;99.90;;;;;;5048513;28;20227;-88
2023/05/08 07:45:51;;;;;;;0.10;0.10;;;11.80;99.90;;;;;;5034462;28;20968;-88
2023/05/08 07:48:17;;;;;;;0.00;0.00;;;12.10;99.90;;;;;;5038118;28;20184;-88
2023/05/08 07:50:43;;;;;;;0.10;0.10;;;11.90;99.90;;;;;;5047012;28;20186;-89
2023/05/08 07:53:09;;;;;;;0.10;0.10;;;12.00;99.90;;;;;;5037034;28;20171;-87
2023/05/08 07:55:34;;;;;;;0.10;0.10;;;12.10;99.90;;;;;;5031240;28;20485;-90
2023/05/08 07:58:00;;;;;;;0.10;0.10;;;12.20;99.90;;;;;;5033902;28;20205;-89
2023/05/08 08:00:26;;;;;;;0.10;0.10;;;12.20;99.90;;;;;;5037090;28;20187;-89
2023/05/08 08:02:52;;;;;;;0.03;0.03;;;12.40;99.90;;;;;;5035508;28;20180;-88
2023/05/08 08:05:17;;;;;;;0.10;0.10;;;12.60;99.90;;;;;;5032270;28;20438;-88
2023/05/08 08:07:43;;;;;;;0.10;0.10;;;12.60;99.90;;;;;;5040447;28;20194;-87
2023/05/08 08:10:09;;;;;;;0.10;0.10;;;12.60;99.90;;;;;;5044379;28;20185;-89
2023/05/08 08:12:34;;;;;;;0.10;0.10;;;12.60;99.90;;;;;;5043481;28;20221;-88
2023/05/08 08:15:00;;;;;;;0.00;0.00;;;12.90;99.90;;;;;;5035518;28;20207;-86
2023/05/08 08:17:25;;;;;;;0.00;0.00;;;12.80;99.90;;;;;;5045077;28;20233;-94
2023/05/08 08:19:52;;;;;;;0.00;0.00;;;12.80;99.90;;;;;;5042819;28;20187;-86
2023/05/08 08:22:17;;;;;;;0.00;0.00;;;13.20;99.90;;;;;;5038829;28;20554;-90
2023/05/08 08:24:43;;;;;;;0.10;0.10;;;13.20;99.90;;;;;;5035868;28;20504;-85
2023/05/08 08:27:09;;;;;;;0.10;0.10;;;13.00;99.90;;;;;;5049457;28;20694;-87
2023/05/08 08:29:34;;;;;;;0.00;0.00;;;13.40;99.90;;;;;;5034502;28;20642;-87
2023/05/08 08:32:02;;;;;;;0.07;0.07;;;13.50;99.90;;;;;;5046190;28;20244;-88
2023/05/08 08:34:27;;;;;;;0.10;0.10;;;13.20;99.90;;;;;;5044143;28;20187;-86
2023/05/08 08:36:53;;;;;;;0.10;0.10;;;13.20;99.90;;;;;;5041266;28;20489;-86
2023/05/08 08:39:18;;;;;;;0.10;0.10;;;13.40;99.90;;;;;;5048939;28;20213;-86
2023/05/08 08:41:44;;;;;;;0.10;0.10;;;13.40;99.90;;;;;;5049988;28;20202;-89
2023/05/08 08:44:09;;;;;;;0.00;0.00;;;13.60;99.90;;;;;;5038994;28;20205;-89
2023/05/08 08:46:42;;;;;;;0.07;0.07;;;13.80;99.90;;;;;;5043105;28;20579;-87
2023/05/08 08:49:12;;;;;;;0.00;0.00;;;13.80;99.90;;;;;;5042068;28;20266;-89
2023/05/08 08:52:01;;;;;;;0.10;0.10;;;13.70;99.90;;;;;;5042658;28;20505;-89
2023/05/08 08:54:30;;;;;;;0.03;0.03;;;13.90;99.90;;;;;;5039940;28;20438;-89
2023/05/08 08:56:59;;;;;;;0.07;0.07;;;14.00;99.90;;;;;;5033960;28;20529;-87
2023/05/08 08:59:26;;;;;;;0.10;0.10;;;14.00;99.90;;;;;;5042153;28;20449;-93
2023/05/08 09:01:55;;;;;;;0.00;0.00;;;14.30;99.90;;;;;;5034928;28;20495;-88
2023/05/08 09:04:21;;;;;;;0.00;0.00;;;14.20;99.90;;;;;;5035796;28;20848;-91
2023/05/08 09:06:49;;;;;;;0.10;0.10;;;14.50;99.90;;;;;;5040198;28;20449;-89
2023/05/08 09:09:15;;;;;;;0.00;0.00;;;14.40;99.90;;;;;;5038656;28;20199;-89
2023/05/08 09:11:42;;;;;;;0.00;0.00;;;15.30;99.90;;;;;;5055039;28;20838;-90
2023/05/08 09:14:08;;;;;;;0.10;0.10;;;15.50;99.90;;;;;;5043162;28;20442;-92
2023/05/08 09:16:34;;;;;;;0.00;0.00;;;15.10;99.90;;;;;;5039872;28;20488;-88
2023/05/08 09:19:01;;;;;;;0.00;0.00;;;15.30;99.90;;;;;;5043831;28;20448;-89
2023/05/08 09:21:27;;;;;;;0.00;0.00;;;15.30;99.90;;;;;;5044683;28;20198;-87
2023/05/08 09:23:58;;;;;;;0.00;0.00;;;15.80;99.90;;;;;;5051868;28;20494;-91
2023/05/08 09:26:35;;;;;;;0.00;0.00;;;16.00;99.90;;;;;;5055142;28;20469;-86
2023/05/08 09:29:08;;;;;;;0.00;0.00;;;15.90;99.90;;;;;;5067355;28;20459;-87
2023/05/08 09:31:35;;;;;;;0.00;0.00;;;16.20;99.90;;;;;;5037364;28;20437;-90
2023/05/08 09:34:00;;;;;;;0.00;0.00;;;16.40;99.90;;;;;;5042125;28;20450;-91
2023/05/08 09:36:30;;;;;;;0.00;0.00;;;15.80;99.90;;;;;;5034161;28;20575;-88
2023/05/08 09:38:56;;;;;;;0.00;0.00;;;15.80;99.90;;;;;;5036728;28;20179;-88
2023/05/08 09:41:23;;;;;;;0.00;0.00;;;16.20;99.90;;;;;;5046812;28;20452;-88
2023/05/08 09:44:03;;;;;;;0.00;0.00;;;16.80;99.90;;;;;;5039534;28;20219;-89
2023/05/08 09:46:29;;;;;;;0.00;0.00;;;17.50;99.90;;;;;;5045097;28;20461;-90
2023/05/08 09:48:57;;;;;;;0.00;0.00;;;17.60;99.90;;;;;;5040337;28;20452;-87
2023/05/08 09:51:24;;;;;;;0.00;0.00;;;17.10;99.90;;;;;;5035946;28;20445;-89
2023/05/08 09:53:52;;;;;;;0.00;0.00;;;17.50;99.90;;;;;;5032596;28;20446;-91
2023/05/08 09:56:38;;;;;;;0.00;0.00;;;17.20;99.90;;;;;;5045354;28;20832;-88
2023/05/08 09:59:27;;;;;;;0.00;0.00;;;17.10;99.90;;;;;;5036010;28;20796;-89
2023/05/08 10:01:53;;;;;;;0.00;0.00;;;17.60;99.90;;;;;;5040101;28;20450;-88
2023/05/08 10:04:32;;;;;;;0.00;0.00;;;17.50;99.90;;;;;;5033215;28;20438;-89
2023/05/08 10:06:58;;;;;;;0.00;0.00;;;17.50;99.90;;;;;;5046653;28;20441;-89
2023/05/08 10:09:24;;;;;;;0.00;0.00;;;17.80;99.90;;;;;;5045707;28;20452;-88
2023/05/08 10:11:51;;;;;;;0.00;0.00;;;18.00;99.90;;;;;;5045288;28;20220;-88
2023/05/08 10:14:17;;;;;;;0.00;0.00;;;18.20;99.90;;;;;;5050761;28;20674;-87
2023/05/08 10:16:45;;;;;;;0.00;0.00;;;17.80;99.90;;;;;;5047559;28;20487;-82
2023/05/08 10:19:13;;;;;;;0.00;0.00;;;17.60;99.90;;;;;;5034662;28;20938;-82
2023/05/08 10:21:42;;;;;;;0.00;0.00;;;18.00;99.90;;;;;;5048724;28;20448;-82
2023/05/08 10:24:16;;;;;;;0.00;0.00;;;18.10;99.90;;;;;;5033012;28;21066;-83
2023/05/08 10:26:49;;;;;;;0.00;0.00;;;18.50;99.90;;;;;;5038365;28;20953;-83
2023/05/08 10:29:40;;;;;;;0.00;0.00;;;18.50;99.90;;;;;;5047006;28;20958;-82
2023/05/08 10:32:09;;;;;;;0.00;0.00;;;19.00;99.90;;;;;;5045946;28;20441;-82
2023/05/08 10:34:40;;;;;;;0.00;0.00;;;19.10;99.90;;;;;;5037580;28;20441;-81
2023/05/08 10:37:08;;;;;;;0.00;0.00;;;19.10;99.90;;;;;;5037173;28;20449;-82
2023/05/08 10:39:35;;;;;;;0.00;0.00;;;18.70;99.90;;;;;;5038027;28;20456;-83
2023/05/08 10:42:01;;;;;;;0.00;0.00;;;18.90;99.90;;;;;;5037869;28;20598;-84
2023/05/08 10:44:28;;;;;;;0.00;0.00;;;18.80;99.90;;;;;;5036075;28;20442;-89
2023/05/08 10:47:06;;;;;;;0.00;0.00;;;18.60;99.90;;;;;;5028738;28;20442;-81
2023/05/08 10:49:59;;;;;;;0.00;0.00;;;18.80;99.90;;;;;;5033853;28;20484;-83
2023/05/08 10:52:51;;;;;;;0.00;0.00;;;19.50;99.90;;;;;;5038237;28;20449;-83
2023/05/08 10:55:30;;;;;;;0.00;0.00;;;19.30;99.90;;;;;;5045859;28;20481;-83
2023/05/08 10:58:03;;;;;;;0.00;0.00;;;19.00;99.90;;;;;;5039142;28;20528;-81
2023/05/08 11:00:52;;;;;;;0.00;0.00;;;19.30;99.90;;;;;;5039769;28;20450;-83
2023/05/08 11:03:18;;;;;;;0.00;0.00;;;19.90;99.90;;;;;;5040334;28;20433;-82
2023/05/08 11:05:46;;;;;;;0.00;0.00;;;20.30;99.90;;;;;;5049271;28;21314;-82
2023/05/08 11:08:17;;;;;;;0.00;0.00;;;20.60;99.90;;;;;;5047866;28;20833;-82
2023/05/08 11:10:49;;;;;;;0.00;0.00;;;21.40;99.90;;;;;;5049685;28;21040;-83
2023/05/08 11:13:15;;;;;;;0.00;0.00;;;20.30;99.90;;;;;;5039439;28;20437;-83
2023/05/08 11:15:48;;;;;;;0.00;0.00;;;20.20;99.90;;;;;;5053308;28;20491;-82
2023/05/08 11:18:15;;;;;;;0.00;0.00;;;20.70;99.90;;;;;;5038989;28;20190;-82
2023/05/08 11:20:57;;;;;;;0.00;0.00;;;20.80;99.90;;;;;;5051195;28;20475;-83
2023/05/08 11:23:24;;;;;;;0.00;0.00;;;21.50;99.90;;;;;;5050040;28;20441;-82
2023/05/08 11:26:02;;;;;;;0.00;0.00;;;22.00;99.90;;;;;;5046999;28;20540;-83
2023/05/08 11:28:51;;;;;;;0.00;0.00;;;21.70;99.90;;;;;;5045877;28;20595;-85
2023/05/08 11:31:17;;;;;;;0.00;0.00;;;20.90;99.90;;;;;;5031919;28;20461;-83
2023/05/08 11:33:42;;;;;;;0.00;0.00;;;21.80;99.90;;;;;;5046998;28;20929;-83
2023/05/08 11:36:21;;;;;;;0.00;0.00;;;22.30;99.90;;;;;;5044258;28;20230;-83
2023/05/08 11:39:14;;;;;;;0.00;0.00;;;22.10;99.90;;;;;;5052454;28;20182;-83
2023/05/08 11:41:40;;;;;;;0.00;0.00;;;20.90;96.30;;;;;;5038259;28;21044;-82
2023/05/08 11:44:13;;;;;;;0.00;0.00;;;21.70;99.90;;;;;;5034421;28;20568;-83
2023/05/08 11:46:52;;;;;;;0.00;0.00;;;22.40;99.90;;;;;;5045398;28;20214;-83
2023/05/08 11:49:23;;;;;;;0.00;0.00;;;23.20;99.90;;;;;;5039129;28;20468;-82
2023/05/08 11:51:54;;;;;;;0.00;0.00;;;23.50;99.90;;;;;;5047032;28;20444;-82
2023/05/08 11:54:21;;;;;;;0.00;0.00;;;22.80;99.90;;;;;;5048372;28;20476;-81
2023/05/08 11:56:51;;;;;;;0.00;0.00;;;21.70;99.90;;;;;;5046279;28;20507;-82
2023/05/08 11:59:17;;;;;;;0.00;0.00;;;22.20;99.90;;;;;;5045485;28;20455;-82
2023/05/08 12:01:43;;;;;;;0.00;0.00;;;22.70;99.90;;;;;;5043051;28;20725;-81
2023/05/08 12:04:11;;;;;;;0.00;0.00;;;23.40;99.90;;;;;;5030525;28;20442;-81
2023/05/08 12:06:39;;;;;;;0.00;0.00;;;23.40;99.90;;;;;;5041049;28;20445;-81
2023/05/08 12:09:14;;;;;;;0.00;0.00;;;24.30;99.90;;;;;;5032577;28;20442;-83
2023/05/08 12:11:42;;;;;;;0.00;0.00;;;24.30;99.90;;;;;;5051218;28;20443;-82
2023/05/08 12:14:09;;;;;;;0.00;0.00;;;24.10;99.90;;;;;;5061944;28;20536;-84
2023/05/08 12:16:36;;;;;;;0.00;0.00;;;23.60;99.90;;;;;;5056036;28;20491;-82
2023/05/08 12:19:02;;;;;;;0.00;0.00;;;23.20;99.90;;;;;;5049053;28;20429;-82
2023/05/08 12:21:28;;;;;;;0.00;0.00;;;23.00;99.90;;;;;;5045887;28;20956;-83
2023/05/08 12:23:54;;;;;;;0.00;0.00;;;23.40;99.90;;;;;;5037764;28;20709;-84
2023/05/08 12:26:21;;;;;;;0.00;0.00;;;22.90;99.90;;;;;;5048240;28;20210;-83
2023/05/08 12:28:55;;;;;;;0.00;0.00;;;22.30;99.90;;;;;;5036527;28;20494;-81
2023/05/08 12:31:21;;;;;;;0.00;0.00;;;23.00;99.80;;;;;;5034803;28;20537;-84
2023/05/08 12:33:47;;;;;;;0.00;0.00;;;23.00;98.90;;;;;;5042732;28;21018;-82
2023/05/08 12:36:12;;;;;;;0.00;0.00;;;23.00;99.30;;;;;;5033731;28;20280;-82
2023/05/08 12:38:38;;;;;;;0.00;0.00;;;23.40;99.90;;;;;;5049538;28;20454;-83
2023/05/08 12:41:05;;;;;;;0.00;0.00;;;23.10;92.10;;;;;;5042730;28;20228;-81
2023/05/08 12:43:33;;;;;;;0.00;0.00;;;22.40;89.90;;;;;;5045320;28;20242;-82
2023/05/08 12:45:59;;;;;;;0.00;0.00;;;22.50;88.30;;;;;;5035359;28;20592;-82
2023/05/08 12:48:26;;;;;;;0.00;0.00;;;22.80;90.30;;;;;;5047478;28;20479;-82
2023/05/08 12:50:52;;;;;;;0.00;0.00;;;23.60;94.70;;;;;;5045403;28;20195;-82
2023/05/08 12:53:19;;;;;;;0.00;0.00;;;23.80;91.50;;;;;;5035119;28;20812;-84
2023/05/08 12:55:56;;;;;;;0.00;0.00;;;24.00;83.30;;;;;;5040893;28;20225;-86
2023/05/08 12:58:26;;;;;;;0.00;0.00;;;22.40;73.90;;;;;;5042299;28;20447;-84
2023/05/08 13:01:01;;;;;;;0.00;0.00;;;22.00;74.70;;;;;;5036392;28;20524;-83